Time;durP1;ratioP1;P1;durP2;ratioP2;P2;SDS_P1;SDS_P2;PMS_P1;PMS_P2;Temp;Humidity;BMP_temperature;BMP_pressure;BME280_temperature;BME280_humidity;BME280_pressure;Samples;Min_cycle;Max_cycle;Signal;HPM_P1;HPM_P2
2022/10/17 00:01:14;;;;;;;;;;;22.80;99.90;;;;;;4194606;28;20100;-69
2022/10/17 00:03:19;;;;;;;;;;;22.90;99.90;;;;;;4194427;28;19935;-68
2022/10/17 00:05:24;;;;;;;;;;;22.90;99.90;;;;;;4208564;28;19961;-69
2022/10/17 00:07:35;;;;;;;;;;;22.90;99.90;;;;;;4193342;28;20011;-68
2022/10/17 00:09:59;;;;;;;;;;;23.00;99.90;;;;;;4206933;28;20027;-68
2022/10/17 00:12:12;;;;;;;;;;;23.20;99.90;;;;;;4193492;28;19959;-68
2022/10/17 00:14:26;;;;;;;;;;;23.20;99.90;;;;;;4193392;28;19929;-68
2022/10/17 00:16:44;;;;;;;;;;;23.30;99.90;;;;;;4193253;28;19935;-68
2022/10/17 00:18:51;;;;;;;;;;;23.40;99.90;;;;;;4193168;28;19925;-68
2022/10/17 00:21:13;;;;;;;;;;;23.40;99.90;;;;;;4206661;28;19930;-69
2022/10/17 00:23:19;;;;;;;;;;;23.50;99.90;;;;;;4206957;28;19927;-68
2022/10/17 00:25:23;;;;;;;;;;;23.50;99.90;;;;;;4193776;28;20282;-68
2022/10/17 00:27:28;;;;;;;;;;;23.60;99.90;;;;;;4209476;28;19931;-69
2022/10/17 00:29:32;;;;;;;;;;;23.60;99.90;;;;;;4209998;28;19932;-68
2022/10/17 00:31:42;;;;;;;;;;;23.70;99.90;;;;;;4194102;28;19928;-68
2022/10/17 00:33:59;;;;;;;;;;;23.70;99.90;;;;;;4193707;28;19936;-69
2022/10/17 00:36:07;;;;;;;;;;;23.70;99.90;;;;;;4193446;28;19928;-68
2022/10/17 00:38:25;;;;;;;;;;;23.80;99.90;;;;;;4206251;28;19963;-68
2022/10/17 00:40:30;;;;;;;;;;;23.80;99.90;;;;;;4210268;28;20445;-69
2022/10/17 00:42:35;;;;;;;;;;;23.80;99.90;;;;;;4225520;28;19967;-68
2022/10/17 00:44:39;;;;;;;;;;;23.90;99.70;;;;;;4186484;28;19928;-68
2022/10/17 00:46:47;;;;;;;;;;;23.90;99.40;;;;;;4210648;28;19935;-68
2022/10/17 00:48:52;;;;;;;;;;;24.00;99.20;;;;;;4209179;28;19982;-68
2022/10/17 00:50:58;;;;;;;;;;;24.00;98.70;;;;;;4207728;28;20027;-68
2022/10/17 00:53:05;;;;;;;;;;;24.10;98.70;;;;;;4213891;28;19971;-70
2022/10/17 00:55:17;;;;;;;;;;;24.10;98.60;;;;;;4213697;28;20125;-69
2022/10/17 00:57:21;;;;;;;;;;;24.10;98.80;;;;;;4189731;28;20393;-69
2022/10/17 00:59:31;;;;;;;;;;;24.10;98.80;;;;;;4196294;28;19925;-68
2022/10/17 01:01:37;;;;;;;;;;;24.20;98.70;;;;;;4212452;28;19928;-69
2022/10/17 01:03:56;;;;;;;;;;;24.30;98.70;;;;;;4196305;28;19928;-68
2022/10/17 01:06:04;;;;;;;;;;;24.30;98.30;;;;;;4195847;28;20282;-68
2022/10/17 01:08:13;;;;;;;;;;;24.30;98.60;;;;;;4195239;28;19985;-68
2022/10/17 01:10:22;;;;;;;;;;;24.30;97.40;;;;;;4196181;28;20019;-69
2022/10/17 01:12:29;;;;;;;;;;;24.20;97.30;;;;;;4209234;28;19955;-69
2022/10/17 01:14:40;;;;;;;;;;;24.30;97.20;;;;;;4211619;28;19955;-69
2022/10/17 01:16:53;;;;;;;;;;;24.30;95.90;;;;;;4211854;28;19934;-69
2022/10/17 01:19:16;;;;;;;;;;;24.40;95.70;;;;;;4196191;28;19929;-69
2022/10/17 01:21:31;;;;;;;;;;;24.40;95.40;;;;;;4210994;28;19928;-68
2022/10/17 01:23:41;;;;;;;;;;;24.40;95.60;;;;;;4210493;28;19924;-68
2022/10/17 01:25:58;;;;;;;;;;;24.50;95.30;;;;;;4209396;28;19960;-68
2022/10/17 01:28:14;;;;;;;;;;;24.50;94.90;;;;;;4211027;28;20540;-68
2022/10/17 01:30:26;;;;;;;;;;;24.50;94.80;;;;;;4194678;28;20330;-68
2022/10/17 01:32:35;;;;;;;;;;;24.50;94.80;;;;;;4211352;28;20440;-69
2022/10/17 01:35:01;;;;;;;;;;;24.60;94.70;;;;;;4211395;28;20790;-68
2022/10/17 01:37:08;;;;;;;;;;;24.60;93.40;;;;;;4211657;28;20594;-68
2022/10/17 01:39:15;;;;;;;;;;;24.60;93.30;;;;;;4185711;28;19929;-68
2022/10/17 01:41:27;;;;;;;;;;;24.70;94.50;;;;;;4194508;28;19970;-69
2022/10/17 01:43:58;;;;;;;;;;;24.80;94.80;;;;;;4181776;28;20414;-69
2022/10/17 01:46:19;;;;;;;;;;;24.90;94.90;;;;;;4208551;28;20030;-68
2022/10/17 01:48:43;;;;;;;;;;;24.90;94.30;;;;;;4208772;28;20148;-69
2022/10/17 01:51:08;;;;;;;;;;;24.90;94.70;;;;;;4180978;28;19948;-68
2022/10/17 01:53:31;;;;;;;;;;;25.00;94.90;;;;;;4194433;28;19925;-68
2022/10/17 01:55:39;;;;;;;;;;;25.00;95.40;;;;;;4209917;28;19924;-68
2022/10/17 01:57:49;;;;;;;;;;;25.10;95.50;;;;;;4193626;28;20011;-69
2022/10/17 02:00:14;;;;;;;;;;;25.10;94.50;;;;;;4178282;28;19925;-68
2022/10/17 02:02:35;;;;;;;;;;;25.10;95.30;;;;;;4206604;28;20622;-68
2022/10/17 02:04:59;;;;;;;;;;;25.20;95.80;;;;;;4175531;28;20044;-68
2022/10/17 02:07:13;;;;;;;;;;;25.30;96.20;;;;;;4207461;28;19978;-69
2022/10/17 02:09:25;;;;;;;;;;;25.30;94.60;;;;;;4210059;28;19928;-68
2022/10/17 02:11:30;;;;;;;;;;;25.30;94.10;;;;;;4211030;28;19928;-68
2022/10/17 02:13:43;;;;;;;;;;;25.40;94.70;;;;;;4194122;28;19928;-68
2022/10/17 02:15:52;;;;;;;;;;;25.40;95.70;;;;;;4209134;28;19932;-68
2022/10/17 02:18:01;;;;;;;;;;;25.50;95.10;;;;;;4209878;28;19924;-68
2022/10/17 02:20:14;;;;;;;;;;;25.40;94.20;;;;;;4183006;28;19937;-68
2022/10/17 02:22:45;;;;;;;;;;;25.50;95.10;;;;;;4193070;28;20436;-68
2022/10/17 02:25:12;;;;;;;;;;;25.60;93.80;;;;;;4177995;28;19925;-68
2022/10/17 02:27:32;;;;;;;;;;;25.60;94.10;;;;;;4182813;28;20361;-68
2022/10/17 02:29:39;;;;;;;;;;;25.60;94.30;;;;;;4192747;28;19929;-68
2022/10/17 02:31:43;;;;;;;;;;;25.80;92.60;;;;;;4185925;28;19936;-68
2022/10/17 02:33:50;;;;;;;;;;;25.80;93.40;;;;;;4193631;28;19930;-68
2022/10/17 02:35:57;;;;;;;;;;;25.80;93.00;;;;;;4209272;28;19931;-68
2022/10/17 02:38:01;;;;;;;;;;;25.90;92.70;;;;;;4193810;28;20402;-68
2022/10/17 02:40:08;;;;;;;;;;;25.90;92.50;;;;;;4192830;28;19932;-68
2022/10/17 02:42:13;;;;;;;;;;;25.90;92.10;;;;;;4192566;28;19933;-68
2022/10/17 02:44:17;;;;;;;;;;;25.90;92.10;;;;;;4193939;28;19924;-68
2022/10/17 02:46:27;;;;;;;;;;;26.00;92.00;;;;;;4193816;28;19929;-68
2022/10/17 02:48:34;;;;;;;;;;;26.00;92.50;;;;;;4193948;28;19928;-67
2022/10/17 02:50:50;;;;;;;;;;;26.10;92.40;;;;;;4192816;28;19932;-66
2022/10/17 02:52:58;;;;;;;;;;;26.10;92.40;;;;;;4192178;28;19928;-68
2022/10/17 02:55:10;;;;;;;;;;;26.20;92.60;;;;;;4193413;28;19928;-68
2022/10/17 02:57:25;;;;;;;;;;;26.20;91.50;;;;;;4184812;28;19928;-69
2022/10/17 02:59:32;;;;;;;;;;;26.30;91.10;;;;;;4191975;28;19999;-68
2022/10/17 03:01:51;;;;;;;;;;;26.30;90.50;;;;;;4206343;28;20039;-69
2022/10/17 03:04:15;;;;;;;;;;;26.30;90.70;;;;;;4191155;28;19964;-69
2022/10/17 03:06:22;;;;;;;;;;;26.40;89.00;;;;;;4205192;28;19935;-69
2022/10/17 03:08:27;;;;;;;;;;;26.40;90.50;;;;;;4207451;28;20491;-69
2022/10/17 03:10:31;;;;;;;;;;;26.40;87.20;;;;;;4192578;28;19955;-69
2022/10/17 03:12:36;;;;;;;;;;;26.40;86.70;;;;;;4208821;28;20371;-69
2022/10/17 03:14:40;;;;;;;;;;;26.50;85.70;;;;;;4183450;28;20403;-69
2022/10/17 03:16:46;;;;;;;;;;;26.50;87.70;;;;;;4169738;28;20011;-68
2022/10/17 03:18:53;;;;;;;;;;;26.60;84.40;;;;;;4208635;28;19956;-68
2022/10/17 03:20:57;;;;;;;;;;;26.70;84.20;;;;;;4179738;28;19936;-68
2022/10/17 03:23:02;;;;;;;;;;;26.70;83.70;;;;;;4209505;28;19950;-70
2022/10/17 03:25:07;;;;;;;;;;;26.90;85.70;;;;;;4176659;28;19928;-69
2022/10/17 03:27:11;;;;;;;;;;;26.90;83.80;;;;;;4176296;28;20465;-68
2022/10/17 03:29:15;;;;;;;;;;;26.90;83.70;;;;;;4193649;28;19928;-68
2022/10/17 03:31:23;;;;;;;;;;;26.90;84.50;;;;;;4193418;28;19980;-68
2022/10/17 03:33:28;;;;;;;;;;;27.00;84.70;;;;;;4209198;28;20467;-69
2022/10/17 03:35:32;;;;;;;;;;;27.00;85.70;;;;;;4209111;28;20396;-68
2022/10/17 03:37:36;;;;;;;;;;;27.00;83.70;;;;;;4195973;28;19943;-68
2022/10/17 03:39:40;;;;;;;;;;;27.00;85.00;;;;;;4209147;28;20338;-69
2022/10/17 03:41:45;;;;;;;;;;;27.10;85.40;;;;;;4193749;28;20153;-69
2022/10/17 03:43:56;;;;;;;;;;;27.10;85.10;;;;;;4191806;28;19928;-69
2022/10/17 03:46:01;;;;;;;;;;;27.10;84.80;;;;;;4209189;28;19928;-68
2022/10/17 03:48:07;;;;;;;;;;;27.20;83.70;;;;;;4209208;28;20296;-68
2022/10/17 03:50:15;;;;;;;;;;;27.20;84.30;;;;;;4193661;28;19975;-68
2022/10/17 03:52:19;;;;;;;;;;;27.30;84.20;;;;;;4208657;28;19927;-68
2022/10/17 03:54:24;;;;;;;;;;;27.40;84.70;;;;;;4208993;28;19931;-69
2022/10/17 03:56:29;;;;;;;;;;;27.40;84.50;;;;;;4208714;28;19934;-68
2022/10/17 03:58:44;;;;;;;;;;;27.40;84.30;;;;;;4208856;28;20337;-69
2022/10/17 04:00:51;;;;;;;;;;;27.50;84.60;;;;;;4208732;28;19935;-68
2022/10/17 04:02:57;;;;;;;;;;;27.50;84.70;;;;;;4193867;28;20047;-69
2022/10/17 04:05:01;;;;;;;;;;;27.50;85.10;;;;;;4208790;28;19982;-68
2022/10/17 04:07:07;;;;;;;;;;;27.50;83.80;;;;;;4208446;28;20404;-68
2022/10/17 04:09:37;;;;;;;;;;;27.50;85.10;;;;;;4206887;28;20152;-68
2022/10/17 04:11:49;;;;;;;;;;;27.50;85.30;;;;;;4208488;28;20027;-68
2022/10/17 04:13:58;;;;;;;;;;;27.60;84.90;;;;;;4208752;28;20281;-68
2022/10/17 04:16:18;;;;;;;;;;;27.70;87.30;;;;;;4207367;28;19971;-68
2022/10/17 04:18:29;;;;;;;;;;;27.60;84.70;;;;;;4208875;28;20696;-68
2022/10/17 04:20:34;;;;;;;;;;;27.70;85.40;;;;;;4191663;28;19928;-69
2022/10/17 04:22:42;;;;;;;;;;;27.70;86.00;;;;;;4192533;28;19968;-68
2022/10/17 04:24:48;;;;;;;;;;;27.70;85.10;;;;;;4209291;28;19924;-69
2022/10/17 04:27:14;;;;;;;;;;;27.70;85.40;;;;;;4179395;28;19936;-69
2022/10/17 04:29:21;;;;;;;;;;;27.70;86.10;;;;;;4208802;28;20454;-67
2022/10/17 04:31:27;;;;;;;;;;;27.90;87.50;;;;;;4208825;28;19924;-66
2022/10/17 04:33:58;;;;;;;;;;;28.00;87.20;;;;;;4192395;28;20268;-67
2022/10/17 04:36:06;;;;;;;;;;;28.00;86.70;;;;;;4208237;28;20290;-67
2022/10/17 04:38:10;;;;;;;;;;;28.00;86.30;;;;;;4212464;28;19928;-67
2022/10/17 04:40:16;;;;;;;;;;;28.00;86.50;;;;;;4212096;28;19961;-67
2022/10/17 04:42:22;;;;;;;;;;;28.10;86.20;;;;;;4209497;28;19928;-66
2022/10/17 04:44:29;;;;;;;;;;;28.00;85.20;;;;;;4211693;28;19928;-69
2022/10/17 04:46:34;;;;;;;;;;;28.00;84.30;;;;;;4182559;28;19929;-69
2022/10/17 04:48:40;;;;;;;;;;;28.10;85.00;;;;;;4208786;28;19928;-69
2022/10/17 04:51:17;;;;;;;;;;;28.10;84.60;;;;;;4208775;28;19924;-69
2022/10/17 04:54:00;;;;;;;;;;;28.10;85.10;;;;;;4181616;28;19964;-69
2022/10/17 04:56:09;;;;;;;;;;;28.30;84.80;;;;;;4175359;28;19987;-69
2022/10/17 04:58:13;;;;;;;;;;;28.30;83.90;;;;;;4191233;28;20349;-68
2022/10/17 05:00:19;;;;;;;;;;;28.40;84.70;;;;;;4190704;28;20418;-68
2022/10/17 05:02:35;;;;;;;;;;;28.40;83.60;;;;;;4191396;28;20519;-69
2022/10/17 05:04:39;;;;;;;;;;;28.40;84.20;;;;;;4195138;28;19935;-68
2022/10/17 05:06:47;;;;;;;;;;;28.40;84.70;;;;;;4197156;28;20344;-68
2022/10/17 05:09:17;;;;;;;;;;;28.50;84.20;;;;;;4199451;28;19968;-68
2022/10/17 05:11:22;;;;;;;;;;;28.50;83.40;;;;;;4207595;28;20023;-68
2022/10/17 05:13:32;;;;;;;;;;;28.50;82.80;;;;;;4211930;28;20023;-68
2022/10/17 05:15:36;;;;;;;;;;;28.50;84.60;;;;;;4190459;28;19924;-68
2022/10/17 05:17:40;;;;;;;;;;;28.50;84.10;;;;;;4190852;28;19932;-68
2022/10/17 05:19:48;;;;;;;;;;;28.50;83.20;;;;;;4191108;28;20453;-68
2022/10/17 05:21:54;;;;;;;;;;;28.60;85.00;;;;;;4201797;28;19989;-69
2022/10/17 05:23:58;;;;;;;;;;;28.60;85.40;;;;;;4224422;28;20015;-68
2022/10/17 05:26:05;;;;;;;;;;;28.80;84.60;;;;;;4207189;28;19935;-68
2022/10/17 05:28:11;;;;;;;;;;;28.80;82.60;;;;;;4207454;28;19928;-69
2022/10/17 05:30:17;;;;;;;;;;;28.70;83.20;;;;;;4203621;28;19939;-69
2022/10/17 05:32:23;;;;;;;;;;;28.70;84.00;;;;;;4202262;28;19963;-70
2022/10/17 05:34:35;;;;;;;;;;;28.70;83.20;;;;;;4225752;28;20258;-69
2022/10/17 05:36:39;;;;;;;;;;;28.70;82.10;;;;;;4188140;28;19924;-69
2022/10/17 05:38:47;;;;;;;;;;;28.80;82.30;;;;;;4215963;28;19928;-69
2022/10/17 05:40:58;;;;;;;;;;;28.90;83.60;;;;;;4193703;28;19946;-68
2022/10/17 05:43:02;;;;;;;;;;;28.90;79.90;;;;;;4178186;28;20438;-68
2022/10/17 05:45:09;;;;;;;;;;;28.90;79.60;;;;;;4177718;28;20645;-68
2022/10/17 05:47:15;;;;;;;;;;;28.90;79.40;;;;;;4161342;28;20331;-70
2022/10/17 05:49:19;;;;;;;;;;;29.00;81.20;;;;;;4177965;28;19928;-69
2022/10/17 05:51:44;;;;;;;;;;;29.00;79.70;;;;;;4177844;28;19979;-68
2022/10/17 05:53:51;;;;;;;;;;;29.00;79.20;;;;;;4173650;28;19933;-69
2022/10/17 05:56:03;;;;;;;;;;;29.10;77.30;;;;;;4197821;28;19951;-69
2022/10/17 05:58:08;;;;;;;;;;;29.20;78.90;;;;;;4187376;28;20497;-70
2022/10/17 06:00:30;;;;;;;;;;;29.20;80.20;;;;;;4188111;28;19931;-67
2022/10/17 06:02:54;;;;;;;;;;;29.30;79.60;;;;;;4188886;28;19940;-68
2022/10/17 06:05:01;;;;;;;;;;;29.30;78.10;;;;;;4207344;28;19982;-69
2022/10/17 06:07:11;;;;;;;;;;;29.40;78.70;;;;;;4180620;28;19936;-68
2022/10/17 06:09:22;;;;;;;;;;;29.30;78.20;;;;;;4206426;28;19932;-68
2022/10/17 06:11:35;;;;;;;;;;;29.40;79.90;;;;;;4183415;28;19974;-68
2022/10/17 06:13:42;;;;;;;;;;;29.40;77.70;;;;;;4211116;28;19928;-68
2022/10/17 06:15:58;;;;;;;;;;;29.40;78.10;;;;;;4208866;28;19934;-68
2022/10/17 06:18:04;;;;;;;;;;;29.40;78.80;;;;;;4191978;28;20473;-69
2022/10/17 06:20:11;;;;;;;;;;;29.50;79.90;;;;;;4186438;28;19929;-69
2022/10/17 06:22:15;;;;;;;;;;;29.40;78.00;;;;;;4194781;28;19929;-68
2022/10/17 06:24:23;;;;;;;;;;;29.40;78.00;;;;;;4210458;28;20019;-69
2022/10/17 06:26:29;;;;;;;;;;;29.40;78.30;;;;;;4208274;28;20056;-68
2022/10/17 06:28:33;;;;;;;;;;;29.40;78.20;;;;;;4185522;28;20004;-69
2022/10/17 06:30:41;;;;;;;;;;;29.40;77.50;;;;;;4210182;28;19954;-68
2022/10/17 06:32:47;;;;;;;;;;;29.40;78.40;;;;;;4183483;28;19928;-68
2022/10/17 06:34:51;;;;;;;;;;;29.40;76.80;;;;;;4210516;28;19934;-69
2022/10/17 06:36:56;;;;;;;;;;;29.50;77.80;;;;;;4210126;28;19924;-68
2022/10/17 06:39:02;;;;;;;;;;;29.40;77.10;;;;;;4204045;28;19928;-68
2022/10/17 06:41:13;;;;;;;;;;;29.40;78.40;;;;;;4181740;28;20481;-68
2022/10/17 06:43:19;;;;;;;;;;;29.50;78.50;;;;;;4193673;28;19974;-68
2022/10/17 06:45:40;;;;;;;;;;;29.50;79.60;;;;;;4208723;28;19932;-68
2022/10/17 06:47:54;;;;;;;;;;;29.60;79.60;;;;;;4186709;28;20374;-69
2022/10/17 06:50:18;;;;;;;;;;;29.60;79.00;;;;;;4178632;28;20028;-70
2022/10/17 06:52:33;;;;;;;;;;;29.60;78.50;;;;;;4193065;28;19982;-69
2022/10/17 06:54:56;;;;;;;;;;;29.60;78.90;;;;;;4185086;28;19928;-69
2022/10/17 06:57:15;;;;;;;;;;;29.60;79.10;;;;;;4208458;28;20867;-69
2022/10/17 06:59:36;;;;;;;;;;;29.60;78.40;;;;;;4184910;28;19929;-69
2022/10/17 07:01:46;;;;;;;;;;;29.70;79.00;;;;;;4206839;28;19985;-69
2022/10/17 07:03:53;;;;;;;;;;;29.70;79.40;;;;;;4204537;28;19928;-70
2022/10/17 07:06:00;;;;;;;;;;;29.70;78.60;;;;;;4197870;28;19936;-69
2022/10/17 07:08:04;;;;;;;;;;;29.70;79.20;;;;;;4206942;28;19932;-69
2022/10/17 07:10:15;;;;;;;;;;;29.70;80.40;;;;;;4208824;28;19924;-69
2022/10/17 07:12:20;;;;;;;;;;;29.70;79.30;;;;;;4207058;28;19963;-70
2022/10/17 07:14:30;;;;;;;;;;;29.70;78.30;;;;;;4207086;28;19939;-69
2022/10/17 07:16:46;;;;;;;;;;;29.70;78.40;;;;;;4192011;28;19939;-69
2022/10/17 07:18:58;;;;;;;;;;;29.80;78.40;;;;;;4208880;28;19928;-70
2022/10/17 07:21:09;;;;;;;;;;;29.80;77.80;;;;;;4209326;28;19928;-69
2022/10/17 07:23:28;;;;;;;;;;;29.80;78.90;;;;;;4193318;28;19994;-69
2022/10/17 07:25:33;;;;;;;;;;;29.80;79.40;;;;;;4193525;28;20355;-69
2022/10/17 07:27:44;;;;;;;;;;;29.80;79.50;;;;;;4192596;28;19924;-71
2022/10/17 07:29:51;;;;;;;;;;;29.80;78.80;;;;;;4192581;28;19928;-69
2022/10/17 07:32:14;;;;;;;;;;;29.80;77.90;;;;;;4209292;28;20015;-70
2022/10/17 07:34:20;;;;;;;;;;;29.80;79.70;;;;;;4193995;28;20027;-69
2022/10/17 07:36:24;;;;;;;;;;;29.90;78.70;;;;;;4192045;28;19998;-69
2022/10/17 07:38:32;;;;;;;;;;;29.90;78.50;;;;;;4207236;28;19934;-69
2022/10/17 07:40:36;;;;;;;;;;;29.90;78.80;;;;;;4208377;28;20022;-69
2022/10/17 07:42:41;;;;;;;;;;;29.90;78.90;;;;;;4191597;28;19928;-70
2022/10/17 07:44:50;;;;;;;;;;;29.90;77.60;;;;;;4208413;28;19959;-69
2022/10/17 07:46:55;;;;;;;;;;;29.90;78.10;;;;;;4175398;28;19988;-69
2022/10/17 07:48:59;;;;;;;;;;;29.90;78.90;;;;;;4175638;28;19925;-69
2022/10/17 07:51:04;;;;;;;;;;;29.90;77.80;;;;;;4192945;28;19960;-69
2022/10/17 07:53:08;;;;;;;;;;;29.90;78.70;;;;;;4193392;28;19932;-70
2022/10/17 07:55:12;;;;;;;;;;;29.90;79.40;;;;;;4193613;28;19978;-69
2022/10/17 07:57:21;;;;;;;;;;;29.90;78.90;;;;;;4192661;28;19967;-69
2022/10/17 07:59:25;;;;;;;;;;;29.90;78.50;;;;;;4193135;28;19934;-70
2022/10/17 08:01:29;;;;;;;;;;;29.90;79.00;;;;;;4192958;28;19929;-69
2022/10/17 08:03:38;;;;;;;;;;;30.00;80.40;;;;;;4182025;28;19932;-70
2022/10/17 08:05:41;;;;;;;;;;;30.00;78.90;;;;;;4191676;28;20318;-67
2022/10/17 08:07:45;;;;;;;;;;;30.00;77.90;;;;;;4208724;28;19940;-69
2022/10/17 08:09:52;;;;;;;;;;;30.00;78.00;;;;;;4191705;28;19978;-70
2022/10/17 08:11:56;;;;;;;;;;;30.00;78.90;;;;;;4193265;28;19928;-70
2022/10/17 08:14:00;;;;;;;;;;;30.00;78.50;;;;;;4192923;28;20360;-69
2022/10/17 08:16:07;;;;;;;;;;;29.90;78.80;;;;;;4193444;28;19924;-69
2022/10/17 08:18:12;;;;;;;;;;;29.90;78.90;;;;;;4190999;28;20027;-70
2022/10/17 08:20:17;;;;;;;;;;;29.90;78.80;;;;;;4190674;28;20456;-69
2022/10/17 08:22:21;;;;;;;;;;;29.90;78.40;;;;;;4190995;28;19947;-70
2022/10/17 08:24:25;;;;;;;;;;;29.90;78.70;;;;;;4190552;28;21476;-70
2022/10/17 08:26:31;;;;;;;;;;;29.90;79.10;;;;;;4181571;28;19935;-68
2022/10/17 08:28:38;;;;;;;;;;;29.90;79.40;;;;;;4175110;28;19951;-68
2022/10/17 08:30:47;;;;;;;;;;;29.90;79.10;;;;;;4189471;28;19932;-67
2022/10/17 08:32:59;;;;;;;;;;;29.90;78.70;;;;;;4193272;28;19928;-68
2022/10/17 08:35:05;;;;;;;;;;;30.00;79.60;;;;;;4192027;28;19928;-67
2022/10/17 08:37:12;;;;;;;;;;;29.90;79.60;;;;;;4193602;28;20613;-68
2022/10/17 08:39:16;;;;;;;;;;;30.00;79.10;;;;;;4193061;28;19929;-67
2022/10/17 08:41:31;;;;;;;;;;;29.90;78.70;;;;;;4192977;28;20015;-68
2022/10/17 08:43:43;;;;;;;;;;;29.90;79.10;;;;;;4191223;28;20473;-67
2022/10/17 08:45:51;;;;;;;;;;;29.90;79.40;;;;;;4197446;28;19974;-67
2022/10/17 08:47:59;;;;;;;;;;;29.90;79.60;;;;;;4186582;28;19932;-67
2022/10/17 08:50:04;;;;;;;;;;;29.80;79.40;;;;;;4207455;28;19955;-68
2022/10/17 08:52:29;;;;;;;;;;;29.90;80.00;;;;;;4207153;28;20019;-67
2022/10/17 08:54:41;;;;;;;;;;;29.90;79.90;;;;;;4186529;28;20466;-67
2022/10/17 08:56:48;;;;;;;;;;;29.90;79.90;;;;;;4207385;28;19936;-67
2022/10/17 08:58:53;;;;;;;;;;;29.90;80.10;;;;;;4190045;28;20520;-68
2022/10/17 09:01:09;;;;;;;;;;;29.90;78.90;;;;;;4183301;28;20026;-67
2022/10/17 09:03:28;;;;;;;;;;;29.90;79.30;;;;;;4206338;28;20027;-66
2022/10/17 09:05:40;;;;;;;;;;;29.90;80.30;;;;;;4191220;28;19933;-67
2022/10/17 09:07:49;;;;;;;;;;;29.90;80.30;;;;;;4208967;28;20668;-68
2022/10/17 09:10:06;;;;;;;;;;;29.90;80.10;;;;;;4194256;28;20375;-68
2022/10/17 09:12:18;;;;;;;;;;;29.90;80.10;;;;;;4210763;28;19934;-68
2022/10/17 09:15:01;;;;;;;;;;;29.90;80.30;;;;;;4210247;28;20386;-69
2022/10/17 09:17:14;;;;;;;;;;;29.90;79.30;;;;;;4152421;28;19960;-68
2022/10/17 09:19:19;;;;;;;;;;;29.90;79.00;;;;;;4136340;28;20020;-69
2022/10/17 09:21:34;;;;;;;;;;;29.90;79.50;;;;;;4152590;28;19968;-67
2022/10/17 09:23:45;;;;;;;;;;;29.90;80.00;;;;;;4152492;28;19930;-68
2022/10/17 09:25:51;;;;;;;;;;;29.90;79.70;;;;;;4150781;28;20024;-67
2022/10/17 09:28:22;;;;;;;;;;;29.90;80.60;;;;;;4136319;28;20024;-68
2022/10/17 09:30:32;;;;;;;;;;;29.90;79.70;;;;;;4152040;28;20701;-68
2022/10/17 09:32:49;;;;;;;;;;;29.80;80.60;;;;;;4153317;28;19933;-68
2022/10/17 09:34:54;;;;;;;;;;;29.80;80.90;;;;;;4151925;28;19964;-68
2022/10/17 09:37:00;;;;;;;;;;;29.70;80.60;;;;;;4153102;28;20402;-68
2022/10/17 09:39:16;;;;;;;;;;;29.70;80.90;;;;;;4143998;28;19937;-70
2022/10/17 09:41:34;;;;;;;;;;;29.80;80.80;;;;;;4150929;28;20073;-69
2022/10/17 09:43:56;;;;;;;;;;;29.70;80.50;;;;;;4150350;28;20368;-69
2022/10/17 09:46:03;;;;;;;;;;;29.80;80.70;;;;;;4132771;28;19968;-68
2022/10/17 09:48:12;;;;;;;;;;;29.80;80.80;;;;;;4176830;28;19962;-68
2022/10/17 09:50:20;;;;;;;;;;;29.80;81.30;;;;;;4195888;28;19924;-68
2022/10/17 09:52:28;;;;;;;;;;;29.70;81.90;;;;;;4210926;28;19963;-69
2022/10/17 09:54:39;;;;;;;;;;;29.70;81.70;;;;;;4195863;28;19986;-69
2022/10/17 09:57:02;;;;;;;;;;;29.70;81.50;;;;;;4211101;28;20013;-69
2022/10/17 09:59:08;;;;;;;;;;;29.70;81.60;;;;;;4195684;28;19929;-69
2022/10/17 10:01:21;;;;;;;;;;;29.70;81.90;;;;;;4209320;28;19977;-69
2022/10/17 10:03:26;;;;;;;;;;;29.70;82.00;;;;;;4195902;28;19924;-68
2022/10/17 10:05:30;;;;;;;;;;;29.60;82.10;;;;;;4195664;28;20011;-68
2022/10/17 10:07:37;;;;;;;;;;;29.60;82.40;;;;;;4211323;28;19974;-69
2022/10/17 10:09:41;;;;;;;;;;;29.60;82.70;;;;;;4195736;28;19928;-68
2022/10/17 10:11:50;;;;;;;;;;;29.60;82.90;;;;;;4210203;28;19931;-69
2022/10/17 10:13:56;;;;;;;;;;;29.50;83.30;;;;;;4210493;28;20027;-69
2022/10/17 10:16:15;;;;;;;;;;;29.50;83.70;;;;;;4210428;28;19928;-69
2022/10/17 10:18:23;;;;;;;;;;;29.50;84.00;;;;;;4195375;28;19925;-69
2022/10/17 10:20:31;;;;;;;;;;;29.40;84.40;;;;;;4194386;28;19928;-68
2022/10/17 10:22:35;;;;;;;;;;;29.40;84.90;;;;;;4210183;28;20704;-69
2022/10/17 10:24:40;;;;;;;;;;;29.30;85.10;;;;;;4195691;28;20031;-69
2022/10/17 10:26:47;;;;;;;;;;;29.30;85.60;;;;;;4194564;28;19929;-69
2022/10/17 10:28:56;;;;;;;;;;;29.30;85.80;;;;;;4195027;28;20350;-68
2022/10/17 10:31:01;;;;;;;;;;;29.20;86.00;;;;;;4210193;28;19928;-68
2022/10/17 10:33:09;;;;;;;;;;;29.20;86.10;;;;;;4208275;28;20051;-69
2022/10/17 10:35:33;;;;;;;;;;;29.20;86.50;;;;;;4209618;28;19924;-68
2022/10/17 10:37:44;;;;;;;;;;;29.20;86.70;;;;;;4211755;28;20055;-68
2022/10/17 10:39:49;;;;;;;;;;;29.10;86.70;;;;;;4194995;28;19928;-68
2022/10/17 10:41:54;;;;;;;;;;;29.00;87.00;;;;;;4193685;28;19928;-68
2022/10/17 10:44:00;;;;;;;;;;;29.00;87.10;;;;;;4210608;28;19924;-69
2022/10/17 10:46:05;;;;;;;;;;;29.00;87.20;;;;;;4194618;28;20497;-68
2022/10/17 10:48:18;;;;;;;;;;;29.00;87.20;;;;;;4210097;28;19928;-68
2022/10/17 10:50:24;;;;;;;;;;;29.00;87.20;;;;;;4162725;28;19929;-68
2022/10/17 10:52:33;;;;;;;;;;;28.90;87.40;;;;;;4177138;28;19932;-68
2022/10/17 10:54:39;;;;;;;;;;;28.90;87.70;;;;;;4209951;28;19958;-69
2022/10/17 10:56:44;;;;;;;;;;;28.90;87.90;;;;;;4194331;28;19928;-68
2022/10/17 10:58:57;;;;;;;;;;;28.80;87.70;;;;;;4209342;28;20062;-69
2022/10/17 11:01:11;;;;;;;;;;;28.80;87.70;;;;;;4192771;28;19960;-69
2022/10/17 11:03:17;;;;;;;;;;;28.70;88.60;;;;;;4194594;28;19934;-70
2022/10/17 11:05:26;;;;;;;;;;;28.70;89.20;;;;;;4194878;28;19977;-69
2022/10/17 11:07:33;;;;;;;;;;;28.60;89.50;;;;;;4195822;28;19932;-70
2022/10/17 11:09:44;;;;;;;;;;;28.60;89.90;;;;;;4193778;28;19933;-70
2022/10/17 11:11:51;;;;;;;;;;;28.50;90.10;;;;;;4194044;28;20360;-69
2022/10/17 11:14:02;;;;;;;;;;;28.50;90.20;;;;;;4193962;28;19932;-70
2022/10/17 11:16:08;;;;;;;;;;;28.40;90.20;;;;;;4208367;28;19932;-70
2022/10/17 11:18:21;;;;;;;;;;;28.30;90.30;;;;;;4208646;28;19931;-70
2022/10/17 11:20:35;;;;;;;;;;;28.30;90.30;;;;;;4209842;28;19936;-69
2022/10/17 11:22:46;;;;;;;;;;;28.30;90.30;;;;;;4193916;28;19928;-69
2022/10/17 11:25:05;;;;;;;;;;;28.30;90.50;;;;;;4194301;28;19938;-70
2022/10/17 11:27:10;;;;;;;;;;;28.30;90.70;;;;;;4209372;28;19985;-69
2022/10/17 11:29:15;;;;;;;;;;;28.20;90.60;;;;;;4194328;28;20376;-67
2022/10/17 11:31:19;;;;;;;;;;;28.20;90.50;;;;;;4193793;28;19978;-69
2022/10/17 11:33:44;;;;;;;;;;;28.20;90.50;;;;;;4209660;28;19928;-69
2022/10/17 11:36:06;;;;;;;;;;;28.20;90.70;;;;;;4192709;28;19924;-69
2022/10/17 11:38:29;;;;;;;;;;;28.20;90.60;;;;;;4210539;28;19924;-70
2022/10/17 11:40:35;;;;;;;;;;;28.20;90.70;;;;;;4194139;28;19925;-71
2022/10/17 11:42:58;;;;;;;;;;;28.10;90.90;;;;;;4195374;28;19950;-69
2022/10/17 11:45:05;;;;;;;;;;;28.10;91.00;;;;;;4208723;28;20019;-69
2022/10/17 11:47:30;;;;;;;;;;;28.10;91.20;;;;;;4208739;28;19946;-68
2022/10/17 11:49:45;;;;;;;;;;;28.00;91.20;;;;;;4193956;28;19928;-69
2022/10/17 11:51:52;;;;;;;;;;;28.00;91.40;;;;;;4208529;28;19955;-70
2022/10/17 11:54:11;;;;;;;;;;;28.00;91.60;;;;;;4193884;28;20400;-69
2022/10/17 11:56:37;;;;;;;;;;;27.90;91.80;;;;;;4208831;28;20374;-69
2022/10/17 11:58:47;;;;;;;;;;;27.90;91.90;;;;;;4193521;28;19936;-69
2022/10/17 12:00:53;;;;;;;;;;;27.90;92.00;;;;;;4193830;28;20960;-68
2022/10/17 12:03:17;;;;;;;;;;;27.90;92.10;;;;;;4209055;28;19928;-70
2022/10/17 12:05:36;;;;;;;;;;;27.90;92.20;;;;;;4193444;28;20687;-67
2022/10/17 12:07:59;;;;;;;;;;;27.80;92.40;;;;;;4194458;28;19954;-66
2022/10/17 12:10:07;;;;;;;;;;;27.70;92.30;;;;;;4208626;28;20025;-67
2022/10/17 12:12:29;;;;;;;;;;;27.70;92.50;;;;;;4208523;28;20391;-67
2022/10/17 12:14:37;;;;;;;;;;;27.70;92.50;;;;;;4193698;28;19950;-67
2022/10/17 12:16:44;;;;;;;;;;;27.70;92.70;;;;;;4193425;28;20376;-68
2022/10/17 12:19:12;;;;;;;;;;;27.70;92.90;;;;;;4193590;28;19928;-67
2022/10/17 12:21:16;;;;;;;;;;;27.60;92.80;;;;;;4188500;28;19932;-67
2022/10/17 12:23:30;;;;;;;;;;;27.60;92.90;;;;;;4193675;28;19932;-67
2022/10/17 12:25:38;;;;;;;;;;;27.60;92.90;;;;;;4190478;28;19963;-67
2022/10/17 12:27:48;;;;;;;;;;;27.50;93.00;;;;;;4207503;28;19924;-67
2022/10/17 12:30:02;;;;;;;;;;;27.50;92.90;;;;;;4207996;28;19924;-67
2022/10/17 12:32:10;;;;;;;;;;;27.50;92.90;;;;;;4207178;28;19928;-67
2022/10/17 12:34:15;;;;;;;;;;;27.40;92.90;;;;;;4190718;28;20035;-67
2022/10/17 12:36:23;;;;;;;;;;;27.50;93.00;;;;;;4207900;28;20028;-67
2022/10/17 12:38:28;;;;;;;;;;;27.40;93.00;;;;;;4191857;28;19929;-67